Notice: A non well formed numeric value encountered in /var/www/vhosts/meteosesrovires.cat/httpdocs/weather28/wsFunctions.php on line 312

Notice: A non well formed numeric value encountered in /var/www/vhosts/meteosesrovires.cat/httpdocs/weather28/wsFunctions.php on line 312

Notice: A non well formed numeric value encountered in /var/www/vhosts/meteosesrovires.cat/httpdocs/weather28/wsFunctions.php on line 312

Notice: A non well formed numeric value encountered in /var/www/vhosts/meteosesrovires.cat/httpdocs/weather28/wsFunctions.php on line 312

Notice: A non well formed numeric value encountered in /var/www/vhosts/meteosesrovires.cat/httpdocs/weather28/wsFunctions.php on line 312

Notice: A non well formed numeric value encountered in /var/www/vhosts/meteosesrovires.cat/httpdocs/weather28/wsFunctions.php on line 312

Notice: A non well formed numeric value encountered in /var/www/vhosts/meteosesrovires.cat/httpdocs/weather28/wsFunctions.php on line 312

Notice: A non well formed numeric value encountered in /var/www/vhosts/meteosesrovires.cat/httpdocs/weather28/wsFunctions.php on line 312

Notice: A non well formed numeric value encountered in /var/www/vhosts/meteosesrovires.cat/httpdocs/weather28/wsFunctions.php on line 312

Notice: A non well formed numeric value encountered in /var/www/vhosts/meteosesrovires.cat/httpdocs/weather28/wsFunctions.php on line 312

Notice: A non well formed numeric value encountered in /var/www/vhosts/meteosesrovires.cat/httpdocs/weather28/wsFunctions.php on line 312

Notice: A non well formed numeric value encountered in /var/www/vhosts/meteosesrovires.cat/httpdocs/weather28/wsFunctions.php on line 312

Warning: A non-numeric value encountered in /var/www/vhosts/meteosesrovires.cat/httpdocs/weather28/wsFunctions.php on line 312

Notice: A non well formed numeric value encountered in /var/www/vhosts/meteosesrovires.cat/httpdocs/weather28/wsFunctions.php on line 312

Notice: A non well formed numeric value encountered in /var/www/vhosts/meteosesrovires.cat/httpdocs/weather28/wsFunctions.php on line 312

Notice: A non well formed numeric value encountered in /var/www/vhosts/meteosesrovires.cat/httpdocs/weather28/wsFunctions.php on line 312

Notice: A non well formed numeric value encountered in /var/www/vhosts/meteosesrovires.cat/httpdocs/weather28/wsFunctions.php on line 312

Notice: A non well formed numeric value encountered in /var/www/vhosts/meteosesrovires.cat/httpdocs/weather28/wsFunctions.php on line 312

Notice: A non well formed numeric value encountered in /var/www/vhosts/meteosesrovires.cat/httpdocs/weather28/wsFunctions.php on line 312

Notice: A non well formed numeric value encountered in /var/www/vhosts/meteosesrovires.cat/httpdocs/weather28/wsFunctions.php on line 312

Notice: A non well formed numeric value encountered in /var/www/vhosts/meteosesrovires.cat/httpdocs/weather28/wsFunctions.php on line 312

Notice: A non well formed numeric value encountered in /var/www/vhosts/meteosesrovires.cat/httpdocs/weather28/wsFunctions.php on line 267

Notice: A non well formed numeric value encountered in /var/www/vhosts/meteosesrovires.cat/httpdocs/weather28/wsFunctions.php on line 267

Notice: A non well formed numeric value encountered in /var/www/vhosts/meteosesrovires.cat/httpdocs/weather28/wsFunctions.php on line 267

Notice: A non well formed numeric value encountered in /var/www/vhosts/meteosesrovires.cat/httpdocs/weather28/wsFunctions.php on line 267

Warning: A non-numeric value encountered in /var/www/vhosts/meteosesrovires.cat/httpdocs/weather28/wsFunctions.php on line 267

Warning: A non-numeric value encountered in /var/www/vhosts/meteosesrovires.cat/httpdocs/weather28/wsFunctions.php on line 267

Warning: A non-numeric value encountered in /var/www/vhosts/meteosesrovires.cat/httpdocs/weather28/wsFunctions.php on line 267

Warning: A non-numeric value encountered in /var/www/vhosts/meteosesrovires.cat/httpdocs/weather28/wsFunctions.php on line 267

Notice: A non well formed numeric value encountered in /var/www/vhosts/meteosesrovires.cat/httpdocs/weather28/wsFunctions.php on line 199

Notice: A non well formed numeric value encountered in /var/www/vhosts/meteosesrovires.cat/httpdocs/weather28/wsFunctions.php on line 199

Notice: A non well formed numeric value encountered in /var/www/vhosts/meteosesrovires.cat/httpdocs/weather28/wsFunctions.php on line 199

Notice: A non well formed numeric value encountered in /var/www/vhosts/meteosesrovires.cat/httpdocs/weather28/scriptsWD/tagsWD.php on line 282

Notice: A non well formed numeric value encountered in /var/www/vhosts/meteosesrovires.cat/httpdocs/weather28/scriptsWD/tagsWD.php on line 283

Notice: A non well formed numeric value encountered in /var/www/vhosts/meteosesrovires.cat/httpdocs/weather28/wsFunctions.php on line 199

Notice: A non well formed numeric value encountered in /var/www/vhosts/meteosesrovires.cat/httpdocs/weather28/scriptsWD/tagsWD.php on line 336

Notice: A non well formed numeric value encountered in /var/www/vhosts/meteosesrovires.cat/httpdocs/weather28/scriptsWD/tagsWD.php on line 341


Thunder radar more information blitzortung!


Radar de pluja more information rain snow radar


Visita la nostra xarxa de llocs de meteo:

Template documentation
and downloads

And another site



No particular awareness of the weather is required.    There are no Weather-warnings

Nearby METAR Reports


Warning: A non-numeric value encountered in /var/www/vhosts/meteosesrovires.cat/httpdocs/weather28/metar/wsMetarTxt.php on line 609

Warning: A non-numeric value encountered in /var/www/vhosts/meteosesrovires.cat/httpdocs/weather28/metar/wsMetarTxt.php on line 609

Warning: A non-numeric value encountered in /var/www/vhosts/meteosesrovires.cat/httpdocs/weather28/metar/wsMetarTxt.php on line 609

Warning: A non-numeric value encountered in /var/www/vhosts/meteosesrovires.cat/httpdocs/weather28/metar/wsMetarTxt.php on line 609
   
LEBL - Barcelona Airpor, Spain
Distancia fins a l'estacio: SSE 30 km
Actualitzacio: 18-06-2018 15:00
Nuvols dispersos  
Nuvols dispersos  
   Vent: SSW 20.4 km/h
Vent: SSW 20.4 km/h
Temperatura: 25°C
Punt de rosada: 15°C
Humitat: 54%
Barometre: 1020 hPa
Nuvols: Few Clouds
Visibilitat: More than 10 km
Cloud details: Nuvols dispersos 2500 ft
LEBL 181300Z 21011KT 170V230 9999 FEW025 25/15 Q1020 NOSIG
LELL - Sabadell, Spain
Distancia fins a l'estacio: WNW 14 km
Actualitzacio: 18-06-2018 15:00
Nuvols dispersos  
Nuvols dispersos  
   Vent: ESE 20.4 km/h
Vent: ESE 20.4 km/h
Temperatura: 29°C
index de calor: 29°C
Punt de rosada: 16°C
Humitat: 45%
Barometre: 1019 hPa
Nuvols: Few Clouds
Visibilitat: More than 10 km
Cloud details: Nuvols dispersos 4500 ft
LELL 181300Z 12011KT 070V160 9999 FEW045 29/16 Q1019
LEGE - Girona/Costa Bra, Spain
Distancia fins a l'estacio: NE 65 km
Actualitzacio: 18-06-2018 15:00
Nuvols dispersos  
Nuvols dispersos  
   Vent: WSW 5.6 km/h
Vent: WSW 5.6 km/h
Temperatura: 29°C
index de calor: 28°C
Punt de rosada: 14°C
Humitat: 40%
Barometre: 1019 hPa
Nuvols: Few Clouds
Visibilitat: More than 10 km
Cloud details: Nuvols dispersos 3000 ft
LEGE 181300Z 25003KT 9999 FEW030 29/14 Q1019
LERS - Reus (civ/Mil), Spain
Distancia fins a l'estacio: WSW 96 km
Actualitzacio: 18-06-2018 15:00
Clar  
Clar  
   Vent: SSE 9.3 km/h
Vent: SSE 9.3 km/h
Temperatura: 29°C
Punt de rosada: 11°C
Humitat: 33%
Barometre: 1020 hPa
Visibilitat: More than 10 km
Cloud details: Clar ft
LERS 181300Z 16005KT 070V240 CAVOK 29/11 Q1020
LESU - Pirineus/La Seu, Spain
Distancia fins a l'estacio: NW 121 km
Actualitzacio: 18-06-2018 15:00
Parcialment tapat  
Parcialment tapat  
   Vent: NNE 20.4 km/h
Vent: NNE 20.4 km/h
Temperatura: 28°C
Punt de rosada: 7°C
Humitat: 26%
Barometre: 1021 hPa
Nuvols: Partly Cloudy
Visibilitat: More than 10 km
Cloud details: Parcialment tapat 5000 ft
LESU 181300Z 03011KT 9999 SCT050 28/07 Q1021
LEDA - Lleida/Alguaire, Spain
Distancia fins a l'estacio: WNW 146 km
Actualitzacio: 17-06-2018 18:00
NO actual
Clar  
Clar  
   Vent: SW 20.4 km/h
Vent: SW 20.4 km/h
Temperatura: 28°C
Punt de rosada: 10°C
Humitat: 32%
Barometre: 1019 hPa
Visibilitat: More than 10 km
Cloud details: Clar ft
LEDA 171600Z 23011KT 190V270 CAVOK 28/10 Q1019
LFMP - Perpignan/Rivesa, France
Distancia fins a l'estacio: NNE 150 km
Actualitzacio: 18-06-2018 15:00
Clar  
Clar  
   Vent: NW 46.3 km/h
Vent: NW 46.3 km/h
Temperatura: 26°C
Punt de rosada: 14°C
Humitat: 48%
Barometre: 1020 hPa
Visibilitat: More than 10 km
Cloud details: Clar ft
LFMP 181300Z AUTO 31025KT CAVOK 26/14 Q1020 BECMG 32025G40KT
LEPA - Palma De Mallorca, Spain
Distancia fins a l'estacio: S 216 km
Actualitzacio: 18-06-2018 15:00
Nuvols dispersos  
Nuvols dispersos  
   Vent: SW 27.8 km/h
Vent: SW 27.8 km/h
Temperatura: 26°C
Punt de rosada: 20°C
Humitat: 70%
Barometre: 1020 hPa
Nuvols: Few Clouds
Visibilitat: More than 10 km
Cloud details: Nuvols dispersos 3500 ft
LEPA 181300Z 23015KT 200V260 9999 FEW035 26/20 Q1020 NOSIG
 

Guio original per  Saratoga-weather.org Adaptat per a la plantilla per  Weerstation Leuven

Trobareu la nostra informacio del temps tambe a:

Weather Underground

AWEKAS